sensor_id;sensor_type;location;lat;lon;timestamp;P1;durP1;ratioP1;P2;durP2;ratioP2
19036;SDS011;9651;49.138;8.900;2023-07-28T00:02:47;5.30;;;3.53;;
19036;SDS011;9651;49.138;8.900;2023-07-28T00:06:48;4.07;;;3.40;;
19036;SDS011;9651;49.138;8.900;2023-07-28T00:10:52;3.92;;;2.80;;
19036;SDS011;9651;49.138;8.900;2023-07-28T00:14:54;4.63;;;3.03;;
19036;SDS011;9651;49.138;8.900;2023-07-28T00:18:56;5.07;;;3.47;;
19036;SDS011;9651;49.138;8.900;2023-07-28T00:22:57;8.35;;;3.80;;
19036;SDS011;9651;49.138;8.900;2023-07-28T00:27:01;4.32;;;3.35;;
19036;SDS011;9651;49.138;8.900;2023-07-28T00:31:03;4.68;;;3.38;;
19036;SDS011;9651;49.138;8.900;2023-07-28T00:35:05;3.65;;;2.97;;
19036;SDS011;9651;49.138;8.900;2023-07-28T00:39:07;4.32;;;3.28;;
19036;SDS011;9651;49.138;8.900;2023-07-28T00:43:10;3.72;;;2.92;;
19036;SDS011;9651;49.138;8.900;2023-07-28T00:47:12;4.63;;;3.85;;
19036;SDS011;9651;49.138;8.900;2023-07-28T00:51:15;4.82;;;3.17;;
19036;SDS011;9651;49.138;8.900;2023-07-28T00:55:17;4.85;;;3.40;;
19036;SDS011;9651;49.138;8.900;2023-07-28T00:59:21;6.10;;;3.13;;
19036;SDS011;9651;49.138;8.900;2023-07-28T01:03:23;5.20;;;3.20;;
19036;SDS011;9651;49.138;8.900;2023-07-28T01:07:26;4.55;;;3.35;;
19036;SDS011;9651;49.138;8.900;2023-07-28T01:11:37;3.80;;;3.47;;
19036;SDS011;9651;49.138;8.900;2023-07-28T01:15:40;7.38;;;4.05;;
19036;SDS011;9651;49.138;8.900;2023-07-28T01:19:42;4.50;;;3.33;;
19036;SDS011;9651;49.138;8.900;2023-07-28T01:23:46;4.67;;;3.47;;
19036;SDS011;9651;49.138;8.900;2023-07-28T01:27:58;7.10;;;3.78;;
19036;SDS011;9651;49.138;8.900;2023-07-28T01:32:01;4.93;;;3.67;;
19036;SDS011;9651;49.138;8.900;2023-07-28T01:36:05;6.45;;;3.00;;
19036;SDS011;9651;49.138;8.900;2023-07-28T01:40:07;3.58;;;3.20;;
19036;SDS011;9651;49.138;8.900;2023-07-28T01:44:11;3.45;;;2.80;;
19036;SDS011;9651;49.138;8.900;2023-07-28T01:48:13;3.03;;;2.63;;
19036;SDS011;9651;49.138;8.900;2023-07-28T01:52:14;4.57;;;3.15;;
19036;SDS011;9651;49.138;8.900;2023-07-28T01:56:16;3.88;;;3.35;;
19036;SDS011;9651;49.138;8.900;2023-07-28T02:00:20;6.82;;;2.92;;
19036;SDS011;9651;49.138;8.900;2023-07-28T02:04:21;3.72;;;3.30;;
19036;SDS011;9651;49.138;8.900;2023-07-28T02:08:23;7.85;;;3.17;;
19036;SDS011;9651;49.138;8.900;2023-07-28T02:12:25;6.00;;;3.38;;
19036;SDS011;9651;49.138;8.900;2023-07-28T02:16:28;6.95;;;3.13;;
19036;SDS011;9651;49.138;8.900;2023-07-28T02:20:32;4.95;;;3.78;;
19036;SDS011;9651;49.138;8.900;2023-07-28T02:24:35;4.38;;;3.20;;
19036;SDS011;9651;49.138;8.900;2023-07-28T02:28:37;5.18;;;2.88;;
19036;SDS011;9651;49.138;8.900;2023-07-28T02:32:40;3.67;;;2.70;;
19036;SDS011;9651;49.138;8.900;2023-07-28T02:36:42;3.90;;;2.92;;
19036;SDS011;9651;49.138;8.900;2023-07-28T02:40:44;5.47;;;3.50;;
19036;SDS011;9651;49.138;8.900;2023-07-28T02:44:46;6.40;;;3.67;;
19036;SDS011;9651;49.138;8.900;2023-07-28T02:48:49;10.07;;;4.20;;
19036;SDS011;9651;49.138;8.900;2023-07-28T02:52:51;7.13;;;4.07;;
19036;SDS011;9651;49.138;8.900;2023-07-28T02:56:53;5.43;;;3.33;;
19036;SDS011;9651;49.138;8.900;2023-07-28T03:00:55;10.97;;;4.23;;
19036;SDS011;9651;49.138;8.900;2023-07-28T03:05:07;8.68;;;3.83;;
19036;SDS011;9651;49.138;8.900;2023-07-28T03:09:29;7.33;;;3.67;;
19036;SDS011;9651;49.138;8.900;2023-07-28T03:13:34;9.10;;;3.75;;
19036;SDS011;9651;49.138;8.900;2023-07-28T03:17:36;5.25;;;3.58;;
19036;SDS011;9651;49.138;8.900;2023-07-28T03:21:39;5.73;;;3.63;;
19036;SDS011;9651;49.138;8.900;2023-07-28T03:25:41;5.65;;;3.25;;
19036;SDS011;9651;49.138;8.900;2023-07-28T03:29:43;4.03;;;3.22;;
19036;SDS011;9651;49.138;8.900;2023-07-28T03:33:47;9.10;;;3.73;;
19036;SDS011;9651;49.138;8.900;2023-07-28T03:37:50;4.17;;;3.43;;
19036;SDS011;9651;49.138;8.900;2023-07-28T03:41:52;4.57;;;3.40;;
19036;SDS011;9651;49.138;8.900;2023-07-28T03:45:55;5.70;;;3.23;;
19036;SDS011;9651;49.138;8.900;2023-07-28T03:49:57;5.53;;;3.33;;
19036;SDS011;9651;49.138;8.900;2023-07-28T03:54:00;3.55;;;3.00;;
19036;SDS011;9651;49.138;8.900;2023-07-28T03:58:02;6.55;;;3.67;;
19036;SDS011;9651;49.138;8.900;2023-07-28T04:02:04;4.35;;;2.85;;
19036;SDS011;9651;49.138;8.900;2023-07-28T04:06:10;3.55;;;2.97;;
19036;SDS011;9651;49.138;8.900;2023-07-28T04:10:13;4.75;;;3.20;;
19036;SDS011;9651;49.138;8.900;2023-07-28T04:14:15;4.40;;;2.80;;
19036;SDS011;9651;49.138;8.900;2023-07-28T04:18:17;3.00;;;2.50;;
19036;SDS011;9651;49.138;8.900;2023-07-28T04:22:19;3.40;;;2.60;;
19036;SDS011;9651;49.138;8.900;2023-07-28T04:26:25;5.00;;;3.10;;
19036;SDS011;9651;49.138;8.900;2023-07-28T04:30:33;3.15;;;2.85;;
19036;SDS011;9651;49.138;8.900;2023-07-28T04:34:35;4.07;;;2.90;;
19036;SDS011;9651;49.138;8.900;2023-07-28T04:38:45;2.95;;;2.53;;
19036;SDS011;9651;49.138;8.900;2023-07-28T04:42:51;2.88;;;2.60;;
19036;SDS011;9651;49.138;8.900;2023-07-28T04:46:54;3.38;;;2.97;;
19036;SDS011;9651;49.138;8.900;2023-07-28T04:50:56;3.17;;;2.80;;
19036;SDS011;9651;49.138;8.900;2023-07-28T04:55:26;7.25;;;2.60;;
19036;SDS011;9651;49.138;8.900;2023-07-28T04:59:30;4.45;;;2.88;;
19036;SDS011;9651;49.138;8.900;2023-07-28T05:03:32;4.22;;;3.00;;
19036;SDS011;9651;49.138;8.900;2023-07-28T05:07:48;3.70;;;2.90;;
19036;SDS011;9651;49.138;8.900;2023-07-28T05:11:50;4.50;;;3.17;;
19036;SDS011;9651;49.138;8.900;2023-07-28T05:15:53;4.10;;;3.38;;
19036;SDS011;9651;49.138;8.900;2023-07-28T05:20:15;6.68;;;3.40;;
19036;SDS011;9651;49.138;8.900;2023-07-28T05:24:23;5.00;;;3.00;;
19036;SDS011;9651;49.138;8.900;2023-07-28T05:28:25;4.65;;;3.03;;
19036;SDS011;9651;49.138;8.900;2023-07-28T05:32:31;5.53;;;4.18;;
19036;SDS011;9651;49.138;8.900;2023-07-28T05:36:52;3.90;;;3.50;;
19036;SDS011;9651;49.138;8.900;2023-07-28T05:40:57;4.05;;;3.22;;
19036;SDS011;9651;49.138;8.900;2023-07-28T05:45:00;4.60;;;2.90;;
19036;SDS011;9651;49.138;8.900;2023-07-28T05:49:04;4.03;;;3.05;;
19036;SDS011;9651;49.138;8.900;2023-07-28T05:53:06;3.97;;;3.08;;
19036;SDS011;9651;49.138;8.900;2023-07-28T05:57:08;4.05;;;3.13;;
19036;SDS011;9651;49.138;8.900;2023-07-28T06:01:10;6.20;;;3.03;;
19036;SDS011;9651;49.138;8.900;2023-07-28T06:05:45;3.80;;;3.08;;
19036;SDS011;9651;49.138;8.900;2023-07-28T06:09:47;3.60;;;2.83;;
19036;SDS011;9651;49.138;8.900;2023-07-28T06:13:49;2.95;;;2.65;;
19036;SDS011;9651;49.138;8.900;2023-07-28T06:17:51;3.55;;;2.83;;
19036;SDS011;9651;49.138;8.900;2023-07-28T06:21:55;2.95;;;2.42;;
19036;SDS011;9651;49.138;8.900;2023-07-28T06:25:57;2.53;;;2.25;;
19036;SDS011;9651;49.138;8.900;2023-07-28T06:29:59;2.33;;;2.10;;
19036;SDS011;9651;49.138;8.900;2023-07-28T06:34:01;5.20;;;2.20;;
19036;SDS011;9651;49.138;8.900;2023-07-28T06:38:04;2.42;;;2.22;;
19036;SDS011;9651;49.138;8.900;2023-07-28T06:42:07;2.20;;;1.98;;
19036;SDS011;9651;49.138;8.900;2023-07-28T06:46:12;2.20;;;1.65;;
19036;SDS011;9651;49.138;8.900;2023-07-28T06:50:14;1.75;;;1.48;;
19036;SDS011;9651;49.138;8.900;2023-07-28T06:54:17;2.20;;;1.50;;
19036;SDS011;9651;49.138;8.900;2023-07-28T06:58:20;1.42;;;1.33;;
19036;SDS011;9651;49.138;8.900;2023-07-28T07:02:21;1.40;;;1.30;;
19036;SDS011;9651;49.138;8.900;2023-07-28T07:06:23;2.85;;;1.25;;
19036;SDS011;9651;49.138;8.900;2023-07-28T07:10:26;3.03;;;1.40;;
19036;SDS011;9651;49.138;8.900;2023-07-28T07:14:28;3.15;;;1.30;;
19036;SDS011;9651;49.138;8.900;2023-07-28T07:18:30;2.40;;;1.50;;
19036;SDS011;9651;49.138;8.900;2023-07-28T07:22:32;2.67;;;1.70;;
19036;SDS011;9651;49.138;8.900;2023-07-28T07:26:35;3.65;;;1.20;;
19036;SDS011;9651;49.138;8.900;2023-07-28T07:30:37;3.42;;;1.30;;
19036;SDS011;9651;49.138;8.900;2023-07-28T07:34:40;4.70;;;1.40;;
19036;SDS011;9651;49.138;8.900;2023-07-28T07:38:42;2.85;;;1.50;;
19036;SDS011;9651;49.138;8.900;2023-07-28T07:42:47;2.25;;;1.60;;
19036;SDS011;9651;49.138;8.900;2023-07-28T07:46:50;2.15;;;1.55;;
19036;SDS011;9651;49.138;8.900;2023-07-28T07:50:51;1.70;;;1.42;;
19036;SDS011;9651;49.138;8.900;2023-07-28T07:54:54;2.13;;;1.65;;
19036;SDS011;9651;49.138;8.900;2023-07-28T07:58:57;2.10;;;1.50;;
19036;SDS011;9651;49.138;8.900;2023-07-28T08:02:59;2.22;;;1.27;;
19036;SDS011;9651;49.138;8.900;2023-07-28T08:07:01;3.13;;;1.77;;
19036;SDS011;9651;49.138;8.900;2023-07-28T08:11:04;2.38;;;1.50;;
19036;SDS011;9651;49.138;8.900;2023-07-28T08:15:09;5.20;;;1.70;;
19036;SDS011;9651;49.138;8.900;2023-07-28T08:19:11;2.40;;;1.60;;
19036;SDS011;9651;49.138;8.900;2023-07-28T08:23:13;1.38;;;1.27;;
19036;SDS011;9651;49.138;8.900;2023-07-28T08:27:15;1.65;;;1.52;;
19036;SDS011;9651;49.138;8.900;2023-07-28T08:31:18;4.63;;;1.45;;
19036;SDS011;9651;49.138;8.900;2023-07-28T08:35:20;1.88;;;1.45;;
19036;SDS011;9651;49.138;8.900;2023-07-28T08:39:21;1.73;;;1.45;;
19036;SDS011;9651;49.138;8.900;2023-07-28T08:43:23;1.30;;;1.20;;
19036;SDS011;9651;49.138;8.900;2023-07-28T08:47:27;2.15;;;1.50;;
19036;SDS011;9651;49.138;8.900;2023-07-28T08:51:29;1.65;;;1.38;;
19036;SDS011;9651;49.138;8.900;2023-07-28T08:55:32;2.67;;;1.65;;
19036;SDS011;9651;49.138;8.900;2023-07-28T08:59:33;1.92;;;1.58;;
19036;SDS011;9651;49.138;8.900;2023-07-28T09:03:38;1.83;;;1.20;;
19036;SDS011;9651;49.138;8.900;2023-07-28T09:07:42;1.75;;;1.35;;
19036;SDS011;9651;49.138;8.900;2023-07-28T09:11:44;1.83;;;1.50;;
19036;SDS011;9651;49.138;8.900;2023-07-28T09:15:47;1.65;;;1.38;;
19036;SDS011;9651;49.138;8.900;2023-07-28T09:19:51;1.30;;;1.20;;
19036;SDS011;9651;49.138;8.900;2023-07-28T09:23:54;2.92;;;1.50;;
19036;SDS011;9651;49.138;8.900;2023-07-28T09:27:56;3.25;;;1.30;;
19036;SDS011;9651;49.138;8.900;2023-07-28T09:32:02;1.50;;;1.40;;
19036;SDS011;9651;49.138;8.900;2023-07-28T09:36:10;2.20;;;1.50;;
19036;SDS011;9651;49.138;8.900;2023-07-28T09:40:13;2.15;;;1.60;;
19036;SDS011;9651;49.138;8.900;2023-07-28T09:44:16;3.38;;;1.50;;
19036;SDS011;9651;49.138;8.900;2023-07-28T09:48:18;1.80;;;1.30;;
19036;SDS011;9651;49.138;8.900;2023-07-28T09:52:22;1.95;;;1.50;;
19036;SDS011;9651;49.138;8.900;2023-07-28T09:56:28;2.60;;;1.40;;
19036;SDS011;9651;49.138;8.900;2023-07-28T10:00:31;1.42;;;1.33;;
19036;SDS011;9651;49.138;8.900;2023-07-28T10:04:34;1.35;;;1.25;;
19036;SDS011;9651;49.138;8.900;2023-07-28T10:08:37;1.58;;;1.30;;
19036;SDS011;9651;49.138;8.900;2023-07-28T10:12:42;1.40;;;1.20;;
19036;SDS011;9651;49.138;8.900;2023-07-28T10:16:48;1.30;;;1.15;;
19036;SDS011;9651;49.138;8.900;2023-07-28T10:20:49;1.27;;;1.17;;
19036;SDS011;9651;49.138;8.900;2023-07-28T10:24:53;1.42;;;0.80;;
19036;SDS011;9651;49.138;8.900;2023-07-28T10:28:56;3.17;;;1.20;;
19036;SDS011;9651;49.138;8.900;2023-07-28T10:33:09;5.57;;;1.00;;
19036;SDS011;9651;49.138;8.900;2023-07-28T10:37:30;2.28;;;1.60;;
19036;SDS011;9651;49.138;8.900;2023-07-28T10:41:34;1.40;;;1.30;;
19036;SDS011;9651;49.138;8.900;2023-07-28T10:45:36;1.50;;;1.27;;
19036;SDS011;9651;49.138;8.900;2023-07-28T10:49:38;2.95;;;1.52;;
19036;SDS011;9651;49.138;8.900;2023-07-28T10:53:40;1.80;;;1.60;;
19036;SDS011;9651;49.138;8.900;2023-07-28T10:57:43;2.17;;;1.30;;
19036;SDS011;9651;49.138;8.900;2023-07-28T11:01:46;1.95;;;1.30;;
19036;SDS011;9651;49.138;8.900;2023-07-28T11:05:48;1.55;;;1.40;;
19036;SDS011;9651;49.138;8.900;2023-07-28T11:09:50;1.67;;;1.58;;
19036;SDS011;9651;49.138;8.900;2023-07-28T11:13:54;1.50;;;1.40;;
19036;SDS011;9651;49.138;8.900;2023-07-28T11:17:56;2.20;;;2.00;;
19036;SDS011;9651;49.138;8.900;2023-07-28T11:21:58;1.85;;;1.65;;
19036;SDS011;9651;49.138;8.900;2023-07-28T11:26:00;3.97;;;1.58;;
19036;SDS011;9651;49.138;8.900;2023-07-28T11:30:04;2.38;;;2.08;;
19036;SDS011;9651;49.138;8.900;2023-07-28T11:34:12;1.90;;;1.50;;
19036;SDS011;9651;49.138;8.900;2023-07-28T11:38:15;3.67;;;2.00;;
19036;SDS011;9651;49.138;8.900;2023-07-28T11:42:18;2.42;;;1.88;;
19036;SDS011;9651;49.138;8.900;2023-07-28T11:46:32;3.75;;;1.80;;
19036;SDS011;9651;49.138;8.900;2023-07-28T11:50:35;2.33;;;1.90;;
19036;SDS011;9651;49.138;8.900;2023-07-28T11:54:39;3.17;;;2.20;;
19036;SDS011;9651;49.138;8.900;2023-07-28T11:58:41;2.13;;;1.73;;
19036;SDS011;9651;49.138;8.900;2023-07-28T12:02:44;4.82;;;2.55;;
19036;SDS011;9651;49.138;8.900;2023-07-28T12:07:06;2.80;;;2.10;;
19036;SDS011;9651;49.138;8.900;2023-07-28T12:11:11;2.20;;;1.95;;
19036;SDS011;9651;49.138;8.900;2023-07-28T12:15:21;2.53;;;1.73;;
19036;SDS011;9651;49.138;8.900;2023-07-28T12:19:27;1.60;;;1.40;;
19036;SDS011;9651;49.138;8.900;2023-07-28T12:23:29;2.35;;;1.75;;
19036;SDS011;9651;49.138;8.900;2023-07-28T12:27:31;2.78;;;1.60;;
19036;SDS011;9651;49.138;8.900;2023-07-28T12:31:33;1.95;;;1.58;;
19036;SDS011;9651;49.138;8.900;2023-07-28T12:35:36;1.70;;;1.60;;
19036;SDS011;9651;49.138;8.900;2023-07-28T12:39:38;3.55;;;1.40;;
19036;SDS011;9651;49.138;8.900;2023-07-28T12:43:40;2.10;;;1.67;;
19036;SDS011;9651;49.138;8.900;2023-07-28T12:47:42;3.30;;;1.70;;
19036;SDS011;9651;49.138;8.900;2023-07-28T12:51:45;4.10;;;1.70;;
19036;SDS011;9651;49.138;8.900;2023-07-28T12:55:47;2.40;;;1.83;;
19036;SDS011;9651;49.138;8.900;2023-07-28T12:59:49;1.92;;;1.70;;
19036;SDS011;9651;49.138;8.900;2023-07-28T13:03:51;3.15;;;2.00;;
19036;SDS011;9651;49.138;8.900;2023-07-28T13:07:54;2.40;;;1.80;;
19036;SDS011;9651;49.138;8.900;2023-07-28T13:11:56;2.65;;;2.28;;
19036;SDS011;9651;49.138;8.900;2023-07-28T13:15:58;2.10;;;1.73;;
19036;SDS011;9651;49.138;8.900;2023-07-28T13:20:00;4.32;;;2.30;;
19036;SDS011;9651;49.138;8.900;2023-07-28T13:24:04;4.18;;;2.35;;
19036;SDS011;9651;49.138;8.900;2023-07-28T13:28:06;2.88;;;2.10;;
19036;SDS011;9651;49.138;8.900;2023-07-28T13:32:15;4.93;;;2.08;;
19036;SDS011;9651;49.138;8.900;2023-07-28T13:36:18;3.65;;;2.28;;
19036;SDS011;9651;49.138;8.900;2023-07-28T13:40:21;4.18;;;2.33;;
19036;SDS011;9651;49.138;8.900;2023-07-28T13:44:23;3.67;;;2.42;;
19036;SDS011;9651;49.138;8.900;2023-07-28T13:48:25;3.90;;;2.53;;
19036;SDS011;9651;49.138;8.900;2023-07-28T13:52:26;3.65;;;2.67;;
19036;SDS011;9651;49.138;8.900;2023-07-28T13:56:30;5.97;;;2.50;;
19036;SDS011;9651;49.138;8.900;2023-07-28T14:00:32;4.38;;;2.42;;
19036;SDS011;9651;49.138;8.900;2023-07-28T14:04:34;6.13;;;2.67;;
19036;SDS011;9651;49.138;8.900;2023-07-28T14:08:35;3.83;;;2.60;;
19036;SDS011;9651;49.138;8.900;2023-07-28T14:12:39;3.15;;;2.45;;
19036;SDS011;9651;49.138;8.900;2023-07-28T14:16:40;3.60;;;2.17;;
19036;SDS011;9651;49.138;8.900;2023-07-28T14:20:42;4.65;;;2.42;;
19036;SDS011;9651;49.138;8.900;2023-07-28T14:24:44;2.20;;;1.95;;
19036;SDS011;9651;49.138;8.900;2023-07-28T14:28:47;2.65;;;2.22;;
19036;SDS011;9651;49.138;8.900;2023-07-28T14:32:49;2.53;;;2.10;;
19036;SDS011;9651;49.138;8.900;2023-07-28T14:36:51;2.40;;;2.17;;
19036;SDS011;9651;49.138;8.900;2023-07-28T14:40:53;2.42;;;1.60;;
19036;SDS011;9651;49.138;8.900;2023-07-28T14:44:56;3.25;;;2.22;;
19036;SDS011;9651;49.138;8.900;2023-07-28T14:48:58;3.33;;;2.58;;
19036;SDS011;9651;49.138;8.900;2023-07-28T14:53:00;2.42;;;1.95;;
19036;SDS011;9651;49.138;8.900;2023-07-28T14:57:02;3.10;;;2.33;;
19036;SDS011;9651;49.138;8.900;2023-07-28T15:01:05;2.28;;;2.08;;
19036;SDS011;9651;49.138;8.900;2023-07-28T15:05:07;2.35;;;2.13;;
19036;SDS011;9651;49.138;8.900;2023-07-28T15:09:09;2.20;;;1.92;;
19036;SDS011;9651;49.138;8.900;2023-07-28T15:13:11;2.67;;;2.00;;
19036;SDS011;9651;49.138;8.900;2023-07-28T15:17:14;3.08;;;1.92;;
19036;SDS011;9651;49.138;8.900;2023-07-28T15:21:16;2.17;;;1.60;;
19036;SDS011;9651;49.138;8.900;2023-07-28T15:25:18;2.55;;;1.73;;
19036;SDS011;9651;49.138;8.900;2023-07-28T15:29:20;2.25;;;1.95;;
19036;SDS011;9651;49.138;8.900;2023-07-28T15:33:23;3.25;;;2.00;;
19036;SDS011;9651;49.138;8.900;2023-07-28T15:37:29;2.00;;;1.65;;
19036;SDS011;9651;49.138;8.900;2023-07-28T15:41:31;1.98;;;1.65;;
19036;SDS011;9651;49.138;8.900;2023-07-28T15:45:32;1.70;;;1.60;;
19036;SDS011;9651;49.138;8.900;2023-07-28T15:49:36;2.22;;;1.80;;
19036;SDS011;9651;49.138;8.900;2023-07-28T15:53:38;2.38;;;1.85;;
19036;SDS011;9651;49.138;8.900;2023-07-28T15:57:40;5.80;;;3.55;;
19036;SDS011;9651;49.138;8.900;2023-07-28T16:01:41;3.50;;;2.80;;
19036;SDS011;9651;49.138;8.900;2023-07-28T16:05:45;2.88;;;2.10;;
19036;SDS011;9651;49.138;8.900;2023-07-28T16:09:47;4.13;;;2.05;;
19036;SDS011;9651;49.138;8.900;2023-07-28T16:13:48;3.70;;;2.28;;
19036;SDS011;9651;49.138;8.900;2023-07-28T16:17:50;2.45;;;2.05;;
19036;SDS011;9651;49.138;8.900;2023-07-28T16:21:53;2.80;;;2.40;;
19036;SDS011;9651;49.138;8.900;2023-07-28T16:25:58;1.98;;;1.77;;
19036;SDS011;9651;49.138;8.900;2023-07-28T16:30:00;2.47;;;1.98;;
19036;SDS011;9651;49.138;8.900;2023-07-28T16:34:06;2.47;;;2.08;;
19036;SDS011;9651;49.138;8.900;2023-07-28T16:38:09;5.85;;;1.95;;
19036;SDS011;9651;49.138;8.900;2023-07-28T16:42:11;1.92;;;1.73;;
19036;SDS011;9651;49.138;8.900;2023-07-28T16:46:13;2.15;;;1.70;;
19036;SDS011;9651;49.138;8.900;2023-07-28T16:50:15;2.00;;;1.80;;
19036;SDS011;9651;49.138;8.900;2023-07-28T16:54:18;2.50;;;1.40;;
19036;SDS011;9651;49.138;8.900;2023-07-28T16:58:20;2.33;;;1.77;;
19036;SDS011;9651;49.138;8.900;2023-07-28T17:02:22;2.92;;;1.80;;
19036;SDS011;9651;49.138;8.900;2023-07-28T17:06:24;2.80;;;1.95;;
19036;SDS011;9651;49.138;8.900;2023-07-28T17:10:27;2.08;;;1.70;;
19036;SDS011;9651;49.138;8.900;2023-07-28T17:14:29;2.63;;;1.55;;
19036;SDS011;9651;49.138;8.900;2023-07-28T17:18:30;4.03;;;2.10;;
19036;SDS011;9651;49.138;8.900;2023-07-28T17:22:32;3.80;;;1.77;;
19036;SDS011;9651;49.138;8.900;2023-07-28T17:26:37;4.07;;;2.10;;
19036;SDS011;9651;49.138;8.900;2023-07-28T17:30:40;2.45;;;2.25;;
19036;SDS011;9651;49.138;8.900;2023-07-28T17:34:42;2.97;;;1.83;;
19036;SDS011;9651;49.138;8.900;2023-07-28T17:38:44;2.03;;;1.60;;
19036;SDS011;9651;49.138;8.900;2023-07-28T17:42:47;2.38;;;2.00;;
19036;SDS011;9651;49.138;8.900;2023-07-28T17:46:49;3.67;;;2.40;;
19036;SDS011;9651;49.138;8.900;2023-07-28T17:50:51;3.72;;;1.95;;
19036;SDS011;9651;49.138;8.900;2023-07-28T17:54:53;2.10;;;1.90;;
19036;SDS011;9651;49.138;8.900;2023-07-28T17:58:56;5.93;;;2.17;;
19036;SDS011;9651;49.138;8.900;2023-07-28T18:02:58;2.15;;;1.95;;
19036;SDS011;9651;49.138;8.900;2023-07-28T18:07:00;2.60;;;1.70;;
19036;SDS011;9651;49.138;8.900;2023-07-28T18:11:03;4.20;;;2.20;;
19036;SDS011;9651;49.138;8.900;2023-07-28T18:15:08;3.78;;;2.33;;
19036;SDS011;9651;49.138;8.900;2023-07-28T18:19:10;2.72;;;2.25;;
19036;SDS011;9651;49.138;8.900;2023-07-28T18:23:12;3.67;;;2.35;;
19036;SDS011;9651;49.138;8.900;2023-07-28T18:27:14;4.28;;;2.25;;
19036;SDS011;9651;49.138;8.900;2023-07-28T18:31:17;2.63;;;2.17;;
19036;SDS011;9651;49.138;8.900;2023-07-28T18:35:19;4.63;;;2.05;;
19036;SDS011;9651;49.138;8.900;2023-07-28T18:39:20;2.88;;;2.22;;
19036;SDS011;9651;49.138;8.900;2023-07-28T18:43:23;2.45;;;1.90;;
19036;SDS011;9651;49.138;8.900;2023-07-28T18:47:28;3.17;;;2.33;;
19036;SDS011;9651;49.138;8.900;2023-07-28T18:51:30;2.40;;;2.20;;
19036;SDS011;9651;49.138;8.900;2023-07-28T18:55:32;2.47;;;2.17;;
19036;SDS011;9651;49.138;8.900;2023-07-28T18:59:34;4.78;;;2.38;;
19036;SDS011;9651;49.138;8.900;2023-07-28T19:03:38;4.45;;;3.00;;
19036;SDS011;9651;49.138;8.900;2023-07-28T19:07:40;3.17;;;2.55;;
19036;SDS011;9651;49.138;8.900;2023-07-28T19:11:41;2.72;;;2.30;;
19036;SDS011;9651;49.138;8.900;2023-07-28T19:15:43;3.28;;;2.60;;
19036;SDS011;9651;49.138;8.900;2023-07-28T19:19:47;3.40;;;1.95;;
19036;SDS011;9651;49.138;8.900;2023-07-28T19:23:48;2.28;;;2.08;;
19036;SDS011;9651;49.138;8.900;2023-07-28T19:27:50;3.83;;;2.30;;
19036;SDS011;9651;49.138;8.900;2023-07-28T19:31:52;3.05;;;2.53;;
19036;SDS011;9651;49.138;8.900;2023-07-28T19:35:55;5.20;;;2.58;;
19036;SDS011;9651;49.138;8.900;2023-07-28T19:39:57;3.25;;;2.42;;
19036;SDS011;9651;49.138;8.900;2023-07-28T19:43:59;3.63;;;2.13;;
19036;SDS011;9651;49.138;8.900;2023-07-28T19:48:01;3.22;;;2.63;;
19036;SDS011;9651;49.138;8.900;2023-07-28T19:52:05;3.53;;;2.83;;
19036;SDS011;9651;49.138;8.900;2023-07-28T19:56:07;4.68;;;2.70;;
19036;SDS011;9651;49.138;8.900;2023-07-28T20:00:09;4.05;;;2.85;;
19036;SDS011;9651;49.138;8.900;2023-07-28T20:04:13;3.03;;;2.72;;
19036;SDS011;9651;49.138;8.900;2023-07-28T20:08:16;2.28;;;2.00;;
19036;SDS011;9651;49.138;8.900;2023-07-28T20:12:17;3.92;;;2.10;;
19036;SDS011;9651;49.138;8.900;2023-07-28T20:16:19;3.50;;;2.50;;
19036;SDS011;9651;49.138;8.900;2023-07-28T20:20:21;3.65;;;2.30;;
19036;SDS011;9651;49.138;8.900;2023-07-28T20:24:25;2.22;;;1.90;;
19036;SDS011;9651;49.138;8.900;2023-07-28T20:28:26;1.77;;;1.60;;
19036;SDS011;9651;49.138;8.900;2023-07-28T20:32:28;3.05;;;2.22;;
19036;SDS011;9651;49.138;8.900;2023-07-28T20:36:30;2.88;;;1.90;;
19036;SDS011;9651;49.138;8.900;2023-07-28T20:40:34;10.40;;;2.40;;
19036;SDS011;9651;49.138;8.900;2023-07-28T20:44:35;3.35;;;1.50;;
19036;SDS011;9651;49.138;8.900;2023-07-28T20:48:37;7.20;;;2.08;;
19036;SDS011;9651;49.138;8.900;2023-07-28T20:52:39;25.73;;;2.70;;
19036;SDS011;9651;49.138;8.900;2023-07-28T20:56:42;3.38;;;2.00;;
19036;SDS011;9651;49.138;8.900;2023-07-28T21:00:44;1.95;;;1.75;;
19036;SDS011;9651;49.138;8.900;2023-07-28T21:04:46;1.70;;;1.60;;
19036;SDS011;9651;49.138;8.900;2023-07-28T21:08:48;2.30;;;1.88;;
19036;SDS011;9651;49.138;8.900;2023-07-28T21:12:51;1.90;;;1.60;;
19036;SDS011;9651;49.138;8.900;2023-07-28T21:16:53;2.90;;;1.83;;
19036;SDS011;9651;49.138;8.900;2023-07-28T21:20:55;2.47;;;1.63;;
19036;SDS011;9651;49.138;8.900;2023-07-28T21:24:57;2.65;;;1.80;;
19036;SDS011;9651;49.138;8.900;2023-07-28T21:29:00;2.17;;;1.98;;
19036;SDS011;9651;49.138;8.900;2023-07-28T21:33:03;3.33;;;1.88;;
19036;SDS011;9651;49.138;8.900;2023-07-28T21:37:06;4.20;;;2.50;;
19036;SDS011;9651;49.138;8.900;2023-07-28T21:41:08;1.87;;;1.77;;
19036;SDS011;9651;49.138;8.900;2023-07-28T21:45:11;1.70;;;1.60;;
19036;SDS011;9651;49.138;8.900;2023-07-28T21:49:13;2.37;;;2.17;;
19036;SDS011;9651;49.138;8.900;2023-07-28T21:53:15;2.67;;;2.40;;
19036;SDS011;9651;49.138;8.900;2023-07-28T21:57:17;4.03;;;2.28;;
19036;SDS011;9651;49.138;8.900;2023-07-28T22:01:21;7.30;;;2.77;;
19036;SDS011;9651;49.138;8.900;2023-07-28T22:05:23;4.40;;;2.63;;
19036;SDS011;9651;49.138;8.900;2023-07-28T22:09:24;3.80;;;2.90;;
19036;SDS011;9651;49.138;8.900;2023-07-28T22:13:27;3.77;;;2.67;;
19036;SDS011;9651;49.138;8.900;2023-07-28T22:17:30;3.33;;;2.60;;
19036;SDS011;9651;49.138;8.900;2023-07-28T22:21:32;2.50;;;2.00;;
19036;SDS011;9651;49.138;8.900;2023-07-28T22:25:39;3.57;;;1.87;;
19036;SDS011;9651;49.138;8.900;2023-07-28T22:29:41;2.20;;;2.00;;
19036;SDS011;9651;49.138;8.900;2023-07-28T22:33:44;4.00;;;2.27;;
19036;SDS011;9651;49.138;8.900;2023-07-28T22:37:46;2.77;;;2.50;;
19036;SDS011;9651;49.138;8.900;2023-07-28T22:41:48;3.63;;;2.77;;
19036;SDS011;9651;49.138;8.900;2023-07-28T22:45:50;5.47;;;2.87;;
19036;SDS011;9651;49.138;8.900;2023-07-28T22:49:53;3.40;;;2.63;;
19036;SDS011;9651;49.138;8.900;2023-07-28T22:53:55;5.67;;;4.10;;
19036;SDS011;9651;49.138;8.900;2023-07-28T22:57:57;4.07;;;2.23;;
19036;SDS011;9651;49.138;8.900;2023-07-28T23:01:59;3.83;;;2.33;;
19036;SDS011;9651;49.138;8.900;2023-07-28T23:06:02;2.57;;;2.00;;
19036;SDS011;9651;49.138;8.900;2023-07-28T23:10:04;3.17;;;2.10;;
19036;SDS011;9651;49.138;8.900;2023-07-28T23:14:06;2.80;;;2.00;;
19036;SDS011;9651;49.138;8.900;2023-07-28T23:18:08;4.20;;;1.60;;
19036;SDS011;9651;49.138;8.900;2023-07-28T23:22:11;2.53;;;2.13;;
19036;SDS011;9651;49.138;8.900;2023-07-28T23:26:13;3.07;;;2.20;;
19036;SDS011;9651;49.138;8.900;2023-07-28T23:30:15;3.60;;;2.17;;
19036;SDS011;9651;49.138;8.900;2023-07-28T23:34:17;4.83;;;2.23;;
19036;SDS011;9651;49.138;8.900;2023-07-28T23:38:20;3.47;;;2.80;;
19036;SDS011;9651;49.138;8.900;2023-07-28T23:42:22;4.97;;;2.63;;
19036;SDS011;9651;49.138;8.900;2023-07-28T23:46:24;2.53;;;2.10;;
19036;SDS011;9651;49.138;8.900;2023-07-28T23:50:25;2.43;;;2.20;;
19036;SDS011;9651;49.138;8.900;2023-07-28T23:54:29;3.20;;;2.50;;
19036;SDS011;9651;49.138;8.900;2023-07-28T23:58:30;4.93;;;3.40;;
